createdAt,value
2018-11-27T00:00:26.197Z,100919.80
2018-11-27T00:03:07.312Z,100916.75
2018-11-27T00:05:36.998Z,100925.41
2018-11-27T00:08:06.049Z,100926.61
2018-11-27T00:10:36.149Z,100929.14
2018-11-27T00:13:05.343Z,100928.69
2018-11-27T00:15:33.788Z,100929.14
2018-11-27T00:18:02.597Z,100930.00
2018-11-27T00:20:31.092Z,100931.73
2018-11-27T00:22:59.988Z,100933.52
2018-11-27T00:25:28.477Z,100935.25
2018-11-27T00:27:57.157Z,100937.32
2018-11-27T00:30:25.699Z,100933.58
2018-11-27T00:32:55.064Z,100929.01
2018-11-27T00:35:23.929Z,100930.19
2018-11-27T00:37:53.408Z,100933.13
2018-11-27T00:40:22.929Z,100923.85
2018-11-27T00:42:51.486Z,100932.25
2018-11-27T00:45:21.719Z,100929.27
2018-11-27T00:47:51.206Z,100929.32
2018-11-27T00:50:22.259Z,100926.53
2018-11-27T00:52:50.983Z,100931.60
2018-11-27T00:55:20.755Z,100935.86
2018-11-27T00:57:52.342Z,100938.40
2018-11-27T01:00:23.311Z,100941.27
2018-11-27T01:02:51.864Z,100941.27
2018-11-27T01:05:21.995Z,100940.41
2018-11-27T01:07:50.471Z,100943.06
2018-11-27T01:10:23.974Z,100940.53
2018-11-27T01:12:52.579Z,100946.86
2018-11-27T01:15:21.167Z,100952.73
2018-11-27T01:17:51.916Z,100957.06
2018-11-27T01:20:21.249Z,100953.55
2018-11-27T01:22:49.647Z,100959.70
2018-11-27T01:25:18.113Z,100957.05
2018-11-27T01:27:46.564Z,100959.89
2018-11-27T01:30:16.934Z,100964.55
2018-11-27T01:32:45.587Z,100962.82
2018-11-27T01:35:18.288Z,100967.17
2018-11-27T01:37:47.503Z,100968.44
2018-11-27T01:40:21.207Z,100967.58
2018-11-27T01:42:50.810Z,100970.17
2018-11-27T01:45:20.274Z,100966.38
2018-11-27T01:47:49.721Z,100969.09
2018-11-27T01:50:18.828Z,100972.08
2018-11-27T01:52:47.410Z,100971.28
2018-11-27T01:55:18.837Z,100973.01
2018-11-27T01:57:47.223Z,100969.61
2018-11-27T02:00:25.387Z,100970.41
2018-11-27T02:02:54.557Z,100971.22
2018-11-27T02:05:23.591Z,100978.36
2018-11-27T02:07:52.872Z,100981.69
2018-11-27T02:10:21.370Z,100976.63
2018-11-27T02:12:51.347Z,100972.24
2018-11-27T02:15:25.128Z,100971.03
2018-11-27T02:17:54.095Z,100970.23
2018-11-27T02:20:22.598Z,100962.17
2018-11-27T02:22:51.026Z,100962.17
2018-11-27T02:25:25.130Z,100967.36
2018-11-27T02:27:53.611Z,100961.43
2018-11-27T02:30:23.272Z,100964.03
2018-11-27T02:32:51.720Z,100962.36
2018-11-27T02:35:21.244Z,100963.22
2018-11-27T02:37:50.780Z,100963.38
2018-11-27T02:40:19.395Z,100966.99
2018-11-27T02:42:47.826Z,100967.73
2018-11-27T02:45:17.963Z,100970.17
2018-11-27T02:47:47.273Z,100962.58
2018-11-27T02:50:17.112Z,100969.52
2018-11-27T02:52:45.587Z,100930.17
2018-11-27T02:55:24.766Z,100974.51
2018-11-27T02:57:53.249Z,100980.52
2018-11-27T03:00:24.643Z,100980.98
2018-11-27T03:02:53.140Z,100987.31
2018-11-27T03:05:39.877Z,100981.26
2018-11-27T03:08:08.335Z,100982.00
2018-11-27T03:10:36.824Z,100987.19
2018-11-27T03:13:05.466Z,100995.24
2018-11-27T03:15:33.954Z,100997.44
2018-11-27T03:18:02.353Z,101000.77
2018-11-27T03:20:30.899Z,100997.77
2018-11-27T03:22:59.362Z,100996.51
2018-11-27T03:25:27.880Z,101006.56
2018-11-27T03:27:56.270Z,101006.87
2018-11-27T03:30:26.217Z,101009.64
2018-11-27T03:32:54.841Z,101008.11
2018-11-27T03:35:24.287Z,101013.11
2018-11-27T03:37:52.931Z,101003.25
2018-11-27T03:40:22.713Z,101008.84
2018-11-27T03:42:51.208Z,101020.40
2018-11-27T03:45:20.345Z,101020.00
2018-11-27T03:47:48.905Z,101022.77
2018-11-27T03:50:22.393Z,101027.69
2018-11-27T03:52:50.841Z,101036.41
2018-11-27T03:55:19.294Z,101033.47
2018-11-27T03:57:48.381Z,101036.23
2018-11-27T04:00:22.396Z,101035.09
2018-11-27T04:02:52.506Z,101036.31
2018-11-27T04:05:21.244Z,101034.30
2018-11-27T04:07:49.736Z,101040.16
2018-11-27T04:10:19.237Z,101040.69
2018-11-27T04:12:47.662Z,101042.69
2018-11-27T04:15:16.857Z,101043.73
2018-11-27T04:17:45.427Z,101043.75
2018-11-27T04:20:14.075Z,101040.83
2018-11-27T04:22:43.434Z,101041.03
2018-11-27T04:25:19.700Z,101049.19
2018-11-27T04:27:48.650Z,101049.66
2018-11-27T04:30:19.835Z,101052.52
2018-11-27T04:32:48.983Z,101056.59
2018-11-27T04:35:18.383Z,101050.61
2018-11-27T04:37:46.890Z,101054.33
2018-11-27T04:40:17.122Z,101056.13
2018-11-27T04:42:45.587Z,101053.72
2018-11-27T04:45:17.272Z,101052.92
2018-11-27T04:47:46.600Z,101053.83
2018-11-27T04:50:15.874Z,101058.31
2018-11-27T04:52:44.485Z,101060.05
2018-11-27T04:55:14.145Z,101061.48
2018-11-27T04:57:42.936Z,101060.48
2018-11-27T05:00:17.364Z,101065.61
2018-11-27T05:02:45.879Z,101072.53
2018-11-27T05:05:14.312Z,101072.79
2018-11-27T05:07:42.724Z,101076.04
2018-11-27T05:10:13.977Z,101077.13
2018-11-27T05:12:42.889Z,101074.27
2018-11-27T05:15:13.634Z,101071.92
2018-11-27T05:17:47.952Z,101072.53
2018-11-27T05:20:12.533Z,101078.99
2018-11-27T05:22:41.257Z,101077.41
2018-11-27T05:25:17.254Z,101081.59
2018-11-27T05:27:48.490Z,101082.31
2018-11-27T05:30:20.903Z,101078.99
2018-11-27T05:32:49.412Z,101082.45
2018-11-27T05:35:19.097Z,101079.60
2018-11-27T05:37:48.556Z,101076.42
2018-11-27T05:40:18.216Z,101078.66
2018-11-27T05:42:47.181Z,101084.72
2018-11-27T05:45:16.861Z,101082.73
2018-11-27T05:47:45.434Z,101092.92
2018-11-27T05:50:14.912Z,101098.84
2018-11-27T05:52:43.474Z,101100.97
2018-11-27T05:55:12.976Z,101100.17
2018-11-27T05:57:41.620Z,101104.69
2018-11-27T06:00:15.432Z,101096.31
2018-11-27T06:02:44.132Z,101098.11
2018-11-27T06:05:17.598Z,101100.78
2018-11-27T06:07:46.218Z,101105.62
2018-11-27T06:10:15.775Z,101112.88
2018-11-27T06:12:46.184Z,101114.54
2018-11-27T06:15:22.444Z,101116.13
2018-11-27T06:17:52.937Z,101113.60
2018-11-27T06:20:22.430Z,101115.01
2018-11-27T06:22:51.151Z,101116.59
2018-11-27T06:25:21.750Z,101123.22
2018-11-27T06:27:53.610Z,101131.91
2018-11-27T06:30:23.376Z,101134.52
2018-11-27T06:32:52.786Z,101139.57
2018-11-27T06:35:34.248Z,101146.36
2018-11-27T06:38:04.058Z,101142.71
2018-11-27T06:40:32.689Z,101142.64
2018-11-27T06:43:01.156Z,101151.09
2018-11-27T06:45:29.662Z,101147.77
2018-11-27T06:47:58.110Z,101156.62
2018-11-27T06:50:26.527Z,101156.69
2018-11-27T06:52:54.986Z,101155.83
2018-11-27T06:55:24.317Z,101158.82
2018-11-27T06:57:52.928Z,101171.47
2018-11-27T07:00:25.591Z,101172.80
2018-11-27T07:02:54.357Z,101178.41
2018-11-27T07:05:22.862Z,101182.37
2018-11-27T07:07:52.964Z,101186.23
2018-11-27T07:10:27.511Z,101185.38
2018-11-27T07:13:01.347Z,101186.63
2018-11-27T07:15:29.777Z,101202.89
2018-11-27T07:17:58.235Z,101207.30
2018-11-27T07:20:26.715Z,101211.34
2018-11-27T07:22:55.116Z,101217.41
2018-11-27T07:25:23.696Z,101219.69
2018-11-27T07:27:52.330Z,101227.81
2018-11-27T07:30:23.781Z,101232.88
2018-11-27T07:32:52.321Z,101233.67
2018-11-27T07:35:20.976Z,101228.61
2018-11-27T07:37:50.450Z,101223.22
2018-11-27T07:40:22.899Z,101220.36
2018-11-27T07:42:53.487Z,101225.50
2018-11-27T07:45:22.997Z,101226.06
2018-11-27T07:47:51.534Z,101226.06
2018-11-27T07:50:20.148Z,101224.80
2018-11-27T07:52:48.642Z,101229.14
2018-11-27T07:55:21.447Z,101230.08
2018-11-27T07:57:50.681Z,101226.35
2018-11-27T08:00:22.774Z,101227.15
2018-11-27T08:02:52.992Z,101225.95
2018-11-27T08:05:25.274Z,101231.08
2018-11-27T08:07:54.936Z,101228.88
2018-11-27T08:10:24.504Z,101235.95
2018-11-27T08:12:53.036Z,101240.22
2018-11-27T08:15:23.680Z,101237.77
2018-11-27T08:17:52.096Z,101234.07
2018-11-27T08:20:23.243Z,101243.47
2018-11-27T08:22:51.726Z,101244.88
2018-11-27T08:25:20.215Z,101246.75
2018-11-27T08:27:48.663Z,101254.55
2018-11-27T08:30:19.094Z,101252.98
2018-11-27T08:32:47.629Z,101253.13
2018-11-27T08:35:31.808Z,101256.59
2018-11-27T08:38:01.843Z,101260.46
2018-11-27T08:40:33.960Z,101263.53
2018-11-27T08:43:02.425Z,101261.93
2018-11-27T08:45:30.820Z,101268.80
2018-11-27T08:47:59.256Z,101264.30
2018-11-27T08:50:28.362Z,101261.44
2018-11-27T08:53:00.991Z,101269.51
2018-11-27T08:55:31.546Z,101271.70
2018-11-27T08:58:00.782Z,101268.11
2018-11-27T09:00:29.246Z,101277.12
2018-11-27T09:02:58.050Z,101275.59
2018-11-27T09:05:26.482Z,101274.89
2018-11-27T09:07:54.964Z,101275.95
2018-11-27T09:10:25.516Z,101279.83
2018-11-27T09:12:54.015Z,101281.23
2018-11-27T09:15:23.347Z,101259.62
2018-11-27T09:18:01.298Z,101284.77
2018-11-27T09:20:29.774Z,101292.13
2018-11-27T09:22:58.204Z,101293.53
2018-11-27T09:25:26.665Z,101294.39
2018-11-27T09:27:55.063Z,101298.27
2018-11-27T09:30:24.799Z,101302.20
2018-11-27T09:32:53.806Z,101307.87
2018-11-27T09:35:22.886Z,101306.03
2018-11-27T09:37:51.355Z,101308.30
2018-11-27T09:40:20.391Z,101307.17
2018-11-27T09:42:48.894Z,101302.23
2018-11-27T09:45:21.173Z,101303.63
2018-11-27T09:47:52.235Z,101307.66
2018-11-27T09:50:20.655Z,101305.66
2018-11-27T09:52:49.172Z,101301.11
2018-11-27T09:55:19.697Z,101300.91
2018-11-27T09:57:48.524Z,101299.40
2018-11-27T10:00:21.971Z,101295.66
2018-11-27T10:02:51.234Z,101296.65
2018-11-27T10:05:20.264Z,101298.05
2018-11-27T10:07:49.667Z,101294.50
2018-11-27T10:10:19.882Z,101296.39
2018-11-27T10:12:48.446Z,101283.02
2018-11-27T10:15:17.746Z,101284.08
2018-11-27T10:17:50.497Z,101275.78
2018-11-27T10:20:20.155Z,101267.06
2018-11-27T10:22:48.634Z,101269.72
2018-11-27T10:25:17.049Z,101264.36
2018-11-27T10:27:45.673Z,101265.75
2018-11-27T10:30:16.278Z,101271.81
2018-11-27T10:32:44.853Z,101277.57
2018-11-27T10:35:20.142Z,101274.28
2018-11-27T10:37:48.604Z,101276.02
2018-11-27T10:40:17.271Z,101268.06
2018-11-27T10:42:45.850Z,101275.27
2018-11-27T10:45:18.886Z,101278.80
2018-11-27T10:47:48.579Z,101270.93
2018-11-27T10:50:18.534Z,101279.07
2018-11-27T10:52:48.296Z,101273.19
2018-11-27T10:55:17.794Z,101281.73
2018-11-27T10:57:46.334Z,101280.92
2018-11-27T11:00:24.100Z,101276.77
2018-11-27T11:02:57.912Z,101286.12
2018-11-27T11:05:27.772Z,101290.05
2018-11-27T11:07:55.911Z,101291.84
2018-11-27T11:10:24.399Z,101298.93
2018-11-27T11:12:52.963Z,101287.39
2018-11-27T11:15:21.391Z,101295.00
2018-11-27T11:17:49.862Z,101300.89
2018-11-27T11:20:18.608Z,101294.08
2018-11-27T11:22:47.062Z,101298.23
2018-11-27T11:25:16.821Z,101300.30
2018-11-27T11:27:46.492Z,101305.84
2018-11-27T11:30:18.285Z,101300.89
2018-11-27T11:32:46.856Z,101298.35
2018-11-27T11:35:15.737Z,101292.87
2018-11-27T11:37:44.374Z,101298.01
2018-11-27T11:40:21.035Z,101304.94
2018-11-27T11:42:51.107Z,101299.05
2018-11-27T11:45:19.508Z,101297.94
2018-11-27T11:47:47.988Z,101295.33
2018-11-27T11:50:17.736Z,101300.01
2018-11-27T11:52:49.119Z,101298.34
2018-11-27T11:55:18.249Z,101296.26
2018-11-27T11:57:47.478Z,101300.53
2018-11-27T12:00:19.753Z,101302.61
2018-11-27T12:02:48.227Z,101314.09
2018-11-27T12:05:16.662Z,101307.34
2018-11-27T12:07:45.117Z,101308.20
2018-11-27T12:10:14.711Z,101309.48
2018-11-27T12:12:44.000Z,101312.83
2018-11-27T12:15:14.486Z,101312.83
2018-11-27T12:17:43.737Z,101323.91
2018-11-27T12:20:14.183Z,101320.56
2018-11-27T12:22:44.895Z,101318.02
2018-11-27T12:25:14.607Z,101319.76
2018-11-27T12:27:43.070Z,101323.16
2018-11-27T12:30:16.607Z,101322.70
2018-11-27T12:32:45.065Z,101326.57
2018-11-27T12:35:14.121Z,101335.06
2018-11-27T12:37:42.695Z,101332.58
2018-11-27T12:40:15.194Z,101337.20
2018-11-27T12:42:44.365Z,101331.19
2018-11-27T12:45:21.822Z,101338.41
2018-11-27T12:47:50.430Z,101342.67
2018-11-27T12:50:23.923Z,101340.54
2018-11-27T12:52:52.397Z,101350.02
2018-11-27T12:55:22.134Z,101343.20
2018-11-27T12:57:50.722Z,101347.94
2018-11-27T13:00:21.443Z,101348.80
2018-11-27T13:02:49.976Z,101345.56
2018-11-27T13:05:28.575Z,101349.66
2018-11-27T13:08:00.103Z,101342.96
2018-11-27T13:10:28.614Z,101345.22
2018-11-27T13:12:57.155Z,101342.27
2018-11-27T13:15:25.630Z,101352.09
2018-11-27T13:17:54.415Z,101348.63
2018-11-27T13:20:22.948Z,101353.59
2018-11-27T13:22:51.777Z,101355.14
2018-11-27T13:25:24.519Z,101348.27
2018-11-27T13:27:55.360Z,101344.45
2018-11-27T13:30:31.802Z,101343.09
2018-11-27T13:33:07.148Z,101335.88
2018-11-27T13:35:35.881Z,101335.88
2018-11-27T13:38:04.415Z,101332.70
2018-11-27T13:40:32.888Z,101328.48
2018-11-27T13:43:01.342Z,101327.67
2018-11-27T13:45:29.793Z,101331.30
2018-11-27T13:47:58.209Z,101331.87
2018-11-27T13:50:26.668Z,101332.34
2018-11-27T13:52:55.107Z,101334.19
2018-11-27T13:55:23.626Z,101328.70
2018-11-27T13:57:52.110Z,101325.30
2018-11-27T14:00:20.883Z,101330.27
2018-11-27T14:02:51.755Z,101339.03
2018-11-27T14:05:21.526Z,101347.86
2018-11-27T14:07:50.050Z,101349.59
2018-11-27T14:10:19.541Z,101356.35
2018-11-27T14:12:48.020Z,101354.46
2018-11-27T14:15:19.716Z,101361.90
2018-11-27T14:17:48.333Z,101357.69
2018-11-27T14:20:17.492Z,101356.02
2018-11-27T14:22:46.965Z,101351.68
2018-11-27T14:25:16.194Z,101356.82
2018-11-27T14:27:45.591Z,101355.48
2018-11-27T14:30:22.261Z,101366.92
2018-11-27T14:32:51.059Z,101375.00
2018-11-27T14:35:20.545Z,101373.66
2018-11-27T14:37:50.210Z,101363.84
2018-11-27T14:40:19.815Z,101366.80
2018-11-27T14:42:48.379Z,101374.35
2018-11-27T14:45:20.319Z,101380.82
2018-11-27T14:47:49.995Z,101384.10
2018-11-27T14:50:18.539Z,101388.59
2018-11-27T14:52:46.984Z,101383.36
2018-11-27T14:55:19.466Z,101391.84
2018-11-27T14:57:48.972Z,101390.58
2018-11-27T15:00:18.701Z,101392.24
2018-11-27T15:02:47.197Z,101398.19
2018-11-27T15:05:18.324Z,101391.31
2018-11-27T15:07:47.271Z,101389.58
2018-11-27T15:10:15.737Z,101394.20
2018-11-27T15:12:44.231Z,101394.66
2018-11-27T15:15:13.578Z,101395.47
2018-11-27T15:17:42.020Z,101397.60
2018-11-27T15:20:15.621Z,101392.80
2018-11-27T15:22:44.155Z,101391.41
2018-11-27T15:25:13.084Z,101400.29
2018-11-27T15:27:41.549Z,101399.36
2018-11-27T15:30:11.861Z,101400.56
2018-11-27T15:32:40.338Z,101397.92
2018-11-27T15:35:09.258Z,101395.66
2018-11-27T15:37:37.698Z,101407.95
2018-11-27T15:40:09.454Z,101403.16
2018-11-27T15:42:37.859Z,101396.88
2018-11-27T15:45:08.367Z,101395.07
2018-11-27T15:47:36.780Z,101400.08
2018-11-27T15:50:06.471Z,101394.54
2018-11-27T15:52:34.891Z,101396.14
2018-11-27T15:55:03.465Z,101388.31
2018-11-27T15:57:31.944Z,101388.24
2018-11-27T16:00:00.391Z,101389.37
2018-11-27T16:02:28.851Z,101388.32
2018-11-27T16:04:57.305Z,101384.32
2018-11-27T16:07:25.804Z,101381.09
2018-11-27T16:09:54.300Z,101388.09
2018-11-27T16:12:22.733Z,101386.23
2018-11-27T16:14:51.212Z,101383.09
2018-11-27T16:17:19.665Z,101382.33
2018-11-27T16:19:48.092Z,101382.20
2018-11-27T16:22:16.660Z,101378.27
2018-11-27T16:24:45.120Z,101382.33
2018-11-27T16:27:13.596Z,101383.90
2018-11-27T16:29:42.114Z,101387.56
2018-11-27T16:32:10.577Z,101395.11
2018-11-27T16:34:39.058Z,101400.97
2018-11-27T16:37:07.568Z,101404.31
2018-11-27T16:39:35.983Z,101397.37
2018-11-27T16:42:04.926Z,101397.62
2018-11-27T16:44:33.487Z,101411.97
2018-11-27T16:47:02.085Z,101411.80
2018-11-27T16:49:30.596Z,101411.20
2018-11-27T16:51:59.084Z,101418.98
2018-11-27T16:54:27.545Z,101411.26
2018-11-27T16:56:56.111Z,101410.79
2018-11-27T16:59:24.879Z,101413.72
2018-11-27T17:01:53.304Z,101421.25
2018-11-27T17:04:21.888Z,101419.63
2018-11-27T17:06:50.320Z,101417.64
2018-11-27T17:09:18.835Z,101399.30
2018-11-27T17:11:47.315Z,101405.44
2018-11-27T17:14:16.287Z,101406.86
2018-11-27T17:16:45.629Z,101404.98
2018-11-27T17:19:14.597Z,101400.03
2018-11-27T17:21:43.071Z,101405.42
2018-11-27T17:24:11.535Z,101399.81
2018-11-27T17:26:39.992Z,101404.09
2018-11-27T17:29:08.626Z,101401.88
2018-11-27T17:31:37.348Z,101401.80
2018-11-27T17:34:10.824Z,101405.68
2018-11-27T17:36:41.487Z,101417.55
2018-11-27T17:39:11.836Z,101414.72
2018-11-27T17:41:40.419Z,101414.72
2018-11-27T17:44:12.046Z,101421.38
2018-11-27T17:46:40.647Z,101423.19
2018-11-27T17:49:09.163Z,101431.72
2018-11-27T17:51:37.649Z,101428.80
2018-11-27T17:54:06.267Z,101424.52
2018-11-27T17:56:34.754Z,101426.73
2018-11-27T17:59:03.223Z,101419.61
2018-11-27T18:01:31.742Z,101414.07
2018-11-27T18:04:00.211Z,101418.05
2018-11-27T18:06:29.051Z,101429.84
2018-11-27T18:08:57.525Z,101418.84
2018-11-27T18:11:26.019Z,101430.23
2018-11-27T18:13:55.328Z,101434.33
2018-11-27T18:16:23.799Z,101436.39
2018-11-27T18:18:52.225Z,101440.27
2018-11-27T18:21:20.735Z,101433.86
2018-11-27T18:23:49.180Z,101431.97
2018-11-27T18:26:17.612Z,101422.96
2018-11-27T18:28:46.070Z,101416.02
2018-11-27T18:31:14.565Z,101414.97
2018-11-27T18:33:43.055Z,101418.29
2018-11-27T18:36:11.516Z,101420.14
2018-11-27T18:38:39.935Z,101411.89
2018-11-27T18:41:08.390Z,101421.39
2018-11-27T18:43:37.516Z,101413.40
2018-11-27T18:46:06.499Z,101412.61
2018-11-27T18:48:34.986Z,101413.63
2018-11-27T18:51:03.485Z,101410.30
2018-11-27T18:53:31.949Z,101410.01
2018-11-27T18:56:00.431Z,101405.34
2018-11-27T18:58:28.897Z,101407.88
2018-11-27T19:00:57.977Z,101403.20
2018-11-27T19:03:26.437Z,101402.23
2018-11-27T19:05:54.929Z,101411.41
2018-11-27T19:08:23.384Z,101401.61
2018-11-27T19:10:51.877Z,101401.14
2018-11-27T19:13:20.319Z,101393.55
2018-11-27T19:15:49.537Z,101403.28
2018-11-27T19:18:22.988Z,101412.53
2018-11-27T19:20:52.054Z,101412.86
2018-11-27T19:23:21.932Z,101421.71
2018-11-27T19:25:50.513Z,101415.23
2018-11-27T19:28:19.000Z,101411.77
2018-11-27T19:30:49.005Z,101416.75
2018-11-27T19:33:17.742Z,101422.60
2018-11-27T19:35:46.182Z,101433.09
2018-11-27T19:38:16.407Z,101421.70
2018-11-27T19:40:44.923Z,101423.45
2018-11-27T19:43:14.099Z,101428.84
2018-11-27T19:45:42.664Z,101437.30
2018-11-27T19:48:11.954Z,101433.35
2018-11-27T19:50:41.480Z,101435.09
2018-11-27T19:53:12.393Z,101435.33
2018-11-27T19:55:40.480Z,101428.82
2018-11-27T19:58:09.845Z,101429.33
2018-11-27T20:00:39.016Z,101432.22
2018-11-27T20:03:09.279Z,101435.47
2018-11-27T20:05:37.824Z,101444.09
2018-11-27T20:08:09.341Z,101438.47
2018-11-27T20:10:38.647Z,101433.27
2018-11-27T20:13:07.162Z,101439.51
2018-11-27T20:15:35.696Z,101433.86
2018-11-27T20:18:04.287Z,101446.04
2018-11-27T20:20:32.799Z,101445.88
2018-11-27T20:23:05.713Z,101451.81
2018-11-27T20:25:34.528Z,101445.56
2018-11-27T20:28:03.666Z,101436.72
2018-11-27T20:30:32.315Z,101441.14
2018-11-27T20:33:02.516Z,101445.25
2018-11-27T20:35:31.788Z,101440.43
2018-11-27T20:38:01.906Z,101440.43
2018-11-27T20:40:30.424Z,101441.78
2018-11-27T20:42:59.503Z,101441.30
2018-11-27T20:45:28.139Z,101441.45
2018-11-27T20:48:00.564Z,101441.34
2018-11-27T20:50:29.039Z,101439.05
2018-11-27T20:52:57.560Z,101434.31
2018-11-27T20:55:26.044Z,101436.45
2018-11-27T20:57:56.787Z,101433.52
2018-11-27T21:00:27.581Z,101436.05
2018-11-27T21:02:59.402Z,101438.58
2018-11-27T21:05:27.921Z,101438.42
2018-11-27T21:07:56.428Z,101442.05
2018-11-27T21:10:25.884Z,101443.80
2018-11-27T21:12:54.439Z,101439.05
2018-11-27T21:15:22.986Z,101445.45
2018-11-27T21:17:51.494Z,101442.05
2018-11-27T21:20:20.046Z,101437.79
2018-11-27T21:22:48.590Z,101449.64
2018-11-27T21:25:19.297Z,101455.96
2018-11-27T21:27:49.658Z,101458.92
2018-11-27T21:30:18.452Z,101457.42
2018-11-27T21:32:46.926Z,101454.65
2018-11-27T21:35:16.402Z,101457.96
2018-11-27T21:37:44.884Z,101457.66
2018-11-27T21:40:16.076Z,101454.65
2018-11-27T21:42:44.706Z,101450.47
2018-11-27T21:45:17.242Z,101458.83
2018-11-27T21:47:48.919Z,101460.66
2018-11-27T21:50:19.462Z,101455.60
2018-11-27T21:52:50.795Z,101455.52
2018-11-27T21:55:19.262Z,101460.97
2018-11-27T21:57:47.725Z,101446.20
2018-11-27T22:00:18.082Z,101440.90
2018-11-27T22:02:46.984Z,101447.69
2018-11-27T22:05:15.640Z,101443.79
2018-11-27T22:07:44.548Z,101452.86
2018-11-27T22:10:15.485Z,101444.89
2018-11-27T22:12:45.120Z,101451.05
2018-11-27T22:15:21.143Z,101450.57
2018-11-27T22:17:49.624Z,101444.33
2018-11-27T22:20:21.399Z,101446.47
2018-11-27T22:22:46.605Z,101448.91
2018-11-27T22:25:15.077Z,101451.27
2018-11-27T22:27:43.539Z,101452.70
2018-11-27T22:30:15.155Z,101448.35
2018-11-27T22:32:45.567Z,101231.89
2018-11-27T22:35:14.028Z,101443.37
2018-11-27T22:37:42.511Z,101446.22
2018-11-27T22:40:14.107Z,101446.22
2018-11-27T22:42:42.696Z,101445.27
2018-11-27T22:45:14.390Z,101449.77
2018-11-27T22:47:42.900Z,101450.63
2018-11-27T22:50:14.487Z,101450.44
2018-11-27T22:52:42.942Z,101444.23
2018-11-27T22:55:11.773Z,101451.11
2018-11-27T22:57:40.244Z,101444.23
2018-11-27T23:00:50.994Z,101446.45
2018-11-27T23:03:19.785Z,101440.22
2018-11-27T23:05:48.245Z,101444.80
2018-11-27T23:08:16.780Z,101438.95
2018-11-27T23:10:46.336Z,101434.21
2018-11-27T23:13:14.791Z,101428.37
2018-11-27T23:15:43.265Z,101430.58
2018-11-27T23:18:11.694Z,101436.90
2018-11-27T23:20:40.200Z,101432.63
2018-11-27T23:23:08.652Z,101434.69
2018-11-27T23:25:37.149Z,101432.63
2018-11-27T23:28:05.775Z,101430.81
2018-11-27T23:30:34.247Z,101427.42
2018-11-27T23:33:02.693Z,101427.97
2018-11-27T23:35:31.145Z,101429.32
2018-11-27T23:38:00.037Z,101427.58
2018-11-27T23:40:28.506Z,101430.02
2018-11-27T23:42:56.993Z,101434.61
2018-11-27T23:45:26.363Z,101427.89
2018-11-27T23:47:54.786Z,101422.45
2018-11-27T23:50:23.414Z,101408.38
2018-11-27T23:52:51.840Z,101413.91
2018-11-27T23:55:20.857Z,101405.94
2018-11-27T23:57:49.622Z,101401.76
